createdAt,value
2023-10-23T00:05:30.013Z,6.65
2023-10-23T00:11:39.407Z,6.64
2023-10-23T00:17:47.492Z,6.72
2023-10-23T00:23:53.258Z,6.71
2023-10-23T00:29:59.857Z,6.68
2023-10-23T00:36:10.821Z,6.58
2023-10-23T00:42:12.553Z,6.54
2023-10-23T00:48:14.238Z,6.48
2023-10-23T00:54:16.612Z,6.45
2023-10-23T01:00:18.502Z,6.43
2023-10-23T01:06:20.189Z,6.45
2023-10-23T01:12:21.851Z,6.39
2023-10-23T01:18:23.632Z,6.38
2023-10-23T01:24:27.408Z,6.34
2023-10-23T01:30:29.818Z,6.28
2023-10-23T01:36:31.479Z,6.23
2023-10-23T01:42:33.151Z,6.16
2023-10-23T01:48:34.814Z,6.07
2023-10-23T01:54:36.483Z,6.05
2023-10-23T02:00:38.155Z,6.06
2023-10-23T02:06:39.803Z,5.98
2023-10-23T02:12:41.475Z,5.97
2023-10-23T02:18:43.129Z,5.93
2023-10-23T02:24:44.807Z,5.90
2023-10-23T02:30:46.575Z,5.84
2023-10-23T02:36:48.777Z,5.74
2023-10-23T02:42:50.473Z,5.71
2023-10-23T02:48:52.343Z,5.70
2023-10-23T02:54:54.216Z,5.66
2023-10-23T03:00:55.985Z,5.58
2023-10-23T03:06:57.855Z,5.49
2023-10-23T03:12:59.566Z,5.40
2023-10-23T03:19:01.253Z,5.30
2023-10-23T03:25:02.956Z,5.30
2023-10-23T03:31:04.854Z,5.26
2023-10-23T03:37:06.416Z,5.21
2023-10-23T03:43:08.633Z,5.13
2023-10-23T03:49:10.254Z,5.07
2023-10-23T03:55:11.832Z,5.00
2023-10-23T04:01:13.938Z,4.92
2023-10-23T04:07:15.549Z,4.83
2023-10-23T04:13:18.058Z,4.73
2023-10-23T04:19:19.653Z,4.64
2023-10-23T04:25:21.619Z,4.56
2023-10-23T04:31:23.247Z,4.49
2023-10-23T04:37:25.028Z,4.41
2023-10-23T04:43:27.577Z,4.34
2023-10-23T04:49:29.445Z,4.30
2023-10-23T04:55:37.625Z,4.24
2023-10-23T05:01:39.519Z,4.20
2023-10-23T05:07:41.227Z,4.13
2023-10-23T05:13:42.901Z,4.11
2023-10-23T05:19:47.986Z,4.10
2023-10-23T05:25:49.684Z,4.07
2023-10-23T05:31:51.290Z,4.07
2023-10-23T05:37:52.869Z,4.09
2023-10-23T05:43:55.124Z,4.17
2023-10-23T05:49:57.424Z,4.17
2023-10-23T05:56:06.677Z,4.24
2023-10-23T06:02:08.233Z,4.36
2023-10-23T06:08:10.394Z,4.52
2023-10-23T06:14:12.033Z,4.71
2023-10-23T06:20:13.710Z,4.86
2023-10-23T06:26:15.286Z,5.22
2023-10-23T06:32:19.696Z,5.56
2023-10-23T06:38:21.313Z,6.01
2023-10-23T06:44:22.944Z,6.54
2023-10-23T06:50:25.165Z,7.10
2023-10-23T06:56:26.795Z,7.37
2023-10-23T07:02:28.408Z,7.69
2023-10-23T07:08:30.008Z,8.16
2023-10-23T07:14:31.564Z,8.36
2023-10-23T07:20:33.170Z,8.75
2023-10-23T07:26:34.879Z,10.24
2023-10-23T07:32:36.994Z,13.77
2023-10-23T07:38:43.425Z,16.81
2023-10-23T07:44:45.087Z,18.36
2023-10-23T07:50:47.288Z,19.67
2023-10-23T07:56:48.884Z,16.75
2023-10-23T08:02:50.474Z,14.52
2023-10-23T08:08:52.127Z,13.35
2023-10-23T08:14:53.815Z,14.51
2023-10-23T08:20:55.541Z,14.81
2023-10-23T08:26:57.127Z,15.51
2023-10-23T08:32:58.830Z,15.31
2023-10-23T08:39:00.697Z,16.28
2023-10-23T08:45:03.493Z,20.40
2023-10-23T08:51:08.196Z,21.13
2023-10-23T08:57:11.585Z,22.73
2023-10-23T09:03:15.324Z,22.07
2023-10-23T09:09:19.943Z,23.18
2023-10-23T09:15:22.350Z,23.28
2023-10-23T09:21:24.125Z,24.16
2023-10-23T09:27:25.905Z,25.32
2023-10-23T09:33:28.945Z,24.73
2023-10-23T09:39:30.652Z,24.35
2023-10-23T09:45:33.232Z,22.77
2023-10-23T09:51:39.239Z,22.05
2023-10-23T09:57:45.606Z,20.68
2023-10-23T10:03:57.484Z,19.13
2023-10-23T10:10:10.075Z,18.63
2023-10-23T10:16:14.251Z,18.18
2023-10-23T10:22:26.841Z,18.87
2023-10-23T10:28:31.597Z,19.80
2023-10-23T10:34:39.098Z,21.35
2023-10-23T10:41:04.104Z,21.83
2023-10-23T10:47:14.003Z,20.38
2023-10-23T10:53:16.099Z,19.09
2023-10-23T10:59:24.610Z,18.28
2023-10-23T11:05:26.636Z,17.86
2023-10-23T11:11:28.751Z,17.53
2023-10-23T11:17:30.549Z,17.14
2023-10-23T11:23:32.416Z,17.28
2023-10-23T11:29:41.251Z,17.38
2023-10-23T11:35:43.486Z,17.69
2023-10-23T11:41:55.197Z,17.97
2023-10-23T11:47:56.847Z,18.65
2023-10-23T11:53:58.758Z,18.55
2023-10-23T12:00:13.162Z,18.07
2023-10-23T12:06:15.781Z,17.83
2023-10-23T12:12:17.401Z,17.48
2023-10-23T12:18:19.138Z,17.27
2023-10-23T12:24:21.341Z,17.04
2023-10-23T12:30:25.825Z,16.97
2023-10-23T12:36:29.771Z,16.54
2023-10-23T12:42:31.473Z,16.62
2023-10-23T12:48:33.114Z,16.95
2023-10-23T12:54:34.868Z,17.20
2023-10-23T13:00:37.867Z,17.67
2023-10-23T13:06:39.452Z,17.81
2023-10-23T13:12:41.053Z,17.71
2023-10-23T13:18:50.448Z,17.44
2023-10-23T13:24:55.594Z,17.11
2023-10-23T13:30:57.320Z,16.86
2023-10-23T13:36:59.541Z,16.63
2023-10-23T13:43:01.719Z,16.65
2023-10-23T13:49:03.940Z,16.56
2023-10-23T13:55:06.006Z,16.50
2023-10-23T14:01:08.042Z,16.35
2023-10-23T14:07:13.107Z,16.08
2023-10-23T14:13:15.250Z,15.89
2023-10-23T14:19:25.665Z,15.75
2023-10-23T14:25:35.775Z,16.04
2023-10-23T14:31:41.416Z,16.04
2023-10-23T14:37:43.075Z,16.08
2023-10-23T14:43:45.593Z,16.23
2023-10-23T14:49:47.360Z,15.95
2023-10-23T14:55:49.038Z,15.84
2023-10-23T15:01:51.266Z,15.69
2023-10-23T15:07:53.121Z,15.38
2023-10-23T15:13:54.720Z,15.09
2023-10-23T15:19:56.399Z,14.79
2023-10-23T15:26:01.382Z,14.65
2023-10-23T15:32:03.288Z,14.35
2023-10-23T15:38:05.984Z,14.15
2023-10-23T15:44:07.437Z,14.04
2023-10-23T15:50:09.410Z,13.57
2023-10-23T15:56:11.196Z,13.46
2023-10-23T16:02:12.945Z,13.24
2023-10-23T16:08:14.936Z,13.14
2023-10-23T16:14:16.581Z,12.90
2023-10-23T16:20:18.172Z,12.89
2023-10-23T16:26:19.802Z,12.63
2023-10-23T16:32:21.846Z,12.54
2023-10-23T16:38:23.465Z,12.42
2023-10-23T16:44:25.065Z,12.39
2023-10-23T16:50:27.263Z,12.23
2023-10-23T16:56:28.931Z,12.17
2023-10-23T17:02:31.484Z,12.13
2023-10-23T17:08:33.709Z,12.06
2023-10-23T17:14:35.548Z,12.01
2023-10-23T17:20:42.006Z,11.98
2023-10-23T17:26:43.640Z,11.90
2023-10-23T17:32:45.671Z,11.79
2023-10-23T17:38:48.101Z,11.72
2023-10-23T17:44:53.940Z,11.56
2023-10-23T17:51:04.492Z,11.63
2023-10-23T17:57:07.132Z,11.43
2023-10-23T18:03:08.964Z,11.27
2023-10-23T18:09:10.898Z,11.30
2023-10-23T18:15:13.741Z,11.12
2023-10-23T18:21:22.371Z,11.07
2023-10-23T18:27:27.285Z,10.96
2023-10-23T18:33:29.228Z,10.84
2023-10-23T18:39:32.938Z,10.77
2023-10-23T18:45:34.638Z,10.69
2023-10-23T18:51:41.375Z,10.64
2023-10-23T18:57:43.032Z,10.47
2023-10-23T19:03:44.681Z,10.40
2023-10-23T19:09:46.734Z,10.34
2023-10-23T19:16:03.861Z,10.28
2023-10-23T19:22:08.452Z,10.21
2023-10-23T19:28:12.256Z,10.14
2023-10-23T19:34:14.112Z,10.13
2023-10-23T19:40:17.244Z,10.07
2023-10-23T19:46:20.185Z,10.04
2023-10-23T19:52:22.299Z,10.07
2023-10-23T19:58:24.167Z,10.02
2023-10-23T20:04:26.429Z,10.01
2023-10-23T20:11:29.550Z,9.94
2023-10-23T20:17:31.216Z,9.91
2023-10-23T20:23:36.164Z,9.88
2023-10-23T20:29:38.769Z,9.88
2023-10-23T20:35:44.947Z,9.87
2023-10-23T20:41:48.853Z,9.82
2023-10-23T20:47:50.456Z,9.77
2023-10-23T20:53:52.065Z,9.69
2023-10-23T20:59:53.722Z,9.64
2023-10-23T21:05:59.940Z,9.57
2023-10-23T21:12:01.577Z,9.54
2023-10-23T21:18:03.333Z,9.48
2023-10-23T21:24:05.492Z,9.45
2023-10-23T21:30:07.718Z,9.38
2023-10-23T21:36:12.370Z,9.36
2023-10-23T21:42:15.599Z,9.32
2023-10-23T21:48:17.184Z,9.33
2023-10-23T21:54:19.395Z,9.31
2023-10-23T22:00:30.531Z,9.28
2023-10-23T22:06:32.489Z,9.26
2023-10-23T22:12:34.369Z,9.24
2023-10-23T22:18:36.050Z,9.23
2023-10-23T22:24:37.655Z,9.21
2023-10-23T22:30:39.403Z,9.20
2023-10-23T22:36:41.017Z,9.21
2023-10-23T22:42:43.174Z,9.19
2023-10-23T22:48:44.783Z,9.16
2023-10-23T22:54:46.773Z,9.11
2023-10-23T23:00:48.505Z,9.08
2023-10-23T23:06:55.717Z,9.01
2023-10-23T23:12:57.618Z,8.97
2023-10-23T23:19:01.480Z,8.95
2023-10-23T23:25:03.156Z,8.90
2023-10-23T23:31:04.886Z,8.97
2023-10-23T23:37:06.615Z,9.04
2023-10-23T23:43:09.081Z,9.07
2023-10-23T23:49:10.852Z,9.10
2023-10-23T23:55:12.487Z,9.13
